createdAt,value
2017-08-19T00:01:28.426Z,84.30
2017-08-19T00:04:39.929Z,83.80
2017-08-19T00:07:49.757Z,83.80
2017-08-19T00:10:59.545Z,83.80
2017-08-19T00:14:08.783Z,84.30
2017-08-19T00:17:17.679Z,84.70
2017-08-19T00:20:27.544Z,84.20
2017-08-19T00:23:37.191Z,83.90
2017-08-19T00:26:47.623Z,84.20
2017-08-19T00:29:56.490Z,84.00
2017-08-19T00:33:05.994Z,84.50
2017-08-19T00:36:15.780Z,85.70
2017-08-19T00:39:25.815Z,87.10
2017-08-19T00:42:35.255Z,87.10
2017-08-19T00:45:44.628Z,87.90
2017-08-19T00:48:54.640Z,87.60
2017-08-19T00:52:04.301Z,87.60
2017-08-19T00:55:13.831Z,88.20
2017-08-19T00:58:22.872Z,87.80
2017-08-19T01:01:32.324Z,87.80
2017-08-19T01:04:41.759Z,88.20
2017-08-19T01:07:51.964Z,88.00
2017-08-19T01:11:01.682Z,88.00
2017-08-19T01:14:10.591Z,87.70
2017-08-19T01:17:19.853Z,88.40
2017-08-19T01:20:28.528Z,88.40
2017-08-19T01:23:38.104Z,87.90
2017-08-19T01:26:53.183Z,87.80
2017-08-19T01:30:02.520Z,87.40
2017-08-19T01:33:11.825Z,87.30
2017-08-19T01:36:21.282Z,86.70
2017-08-19T01:39:32.697Z,87.10
2017-08-19T01:42:43.074Z,87.00
2017-08-19T01:45:53.235Z,87.70
2017-08-19T01:49:03.103Z,87.10
2017-08-19T01:52:13.931Z,86.30
2017-08-19T01:55:24.703Z,86.30
2017-08-19T01:58:34.688Z,86.10
2017-08-19T02:01:45.413Z,85.90
2017-08-19T02:04:55.608Z,85.60
2017-08-19T02:08:06.167Z,85.90
2017-08-19T02:11:16.395Z,85.80
2017-08-19T02:14:26.499Z,85.80
2017-08-19T02:17:37.184Z,85.40
2017-08-19T02:20:47.349Z,85.10
2017-08-19T02:23:58.281Z,84.90
2017-08-19T02:27:08.505Z,84.30
2017-08-19T02:30:18.892Z,85.30
2017-08-19T02:33:29.300Z,84.50
2017-08-19T02:36:40.176Z,84.30
2017-08-19T02:39:50.041Z,84.60
2017-08-19T02:43:00.244Z,85.70
2017-08-19T02:46:10.460Z,85.30
2017-08-19T02:49:20.353Z,84.90
2017-08-19T02:52:30.684Z,84.60
2017-08-19T02:55:41.175Z,85.50
2017-08-19T02:58:51.717Z,85.30
2017-08-19T03:02:02.565Z,84.70
2017-08-19T03:05:13.432Z,84.60
2017-08-19T03:08:23.408Z,84.60
2017-08-19T03:11:33.623Z,84.60
2017-08-19T03:14:44.904Z,85.80
2017-08-19T03:17:55.318Z,84.90
2017-08-19T03:21:05.371Z,84.40
2017-08-19T03:24:16.607Z,84.60
2017-08-19T03:27:26.929Z,84.60
2017-08-19T03:30:37.361Z,84.60
2017-08-19T03:33:47.637Z,83.40
2017-08-19T03:36:57.680Z,84.70
2017-08-19T03:40:07.872Z,85.60
2017-08-19T03:43:17.829Z,85.50
2017-08-19T03:46:28.233Z,83.60
2017-08-19T03:49:39.045Z,83.40
2017-08-19T03:52:49.267Z,82.80
2017-08-19T03:56:00.008Z,83.50
2017-08-19T03:59:10.650Z,83.30
2017-08-19T04:02:20.559Z,84.30
2017-08-19T04:05:30.621Z,85.30
2017-08-19T04:08:40.828Z,85.60
2017-08-19T04:11:51.497Z,86.10
2017-08-19T04:15:02.213Z,84.50
2017-08-19T04:18:12.197Z,84.40
2017-08-19T04:21:22.287Z,85.00
2017-08-19T04:24:33.016Z,85.00
2017-08-19T04:27:43.797Z,84.80
2017-08-19T04:30:55.069Z,84.20
2017-08-19T04:34:05.680Z,84.20
2017-08-19T04:37:15.988Z,83.00
2017-08-19T04:40:26.280Z,83.60
2017-08-19T04:43:36.347Z,84.90
2017-08-19T04:46:46.812Z,85.00
2017-08-19T04:49:57.187Z,83.70
2017-08-19T04:53:07.414Z,84.50
2017-08-19T04:56:17.324Z,84.20
2017-08-19T04:59:27.935Z,84.60
2017-08-19T05:02:39.523Z,84.20
2017-08-19T05:05:50.033Z,85.50
2017-08-19T05:09:00.224Z,85.50
2017-08-19T05:12:11.782Z,85.10
2017-08-19T05:15:22.678Z,85.10
2017-08-19T05:18:32.608Z,85.50
2017-08-19T05:21:43.252Z,86.10
2017-08-19T05:24:53.735Z,86.10
2017-08-19T05:28:04.237Z,85.20
2017-08-19T05:31:13.867Z,85.80
2017-08-19T05:34:24.502Z,86.30
2017-08-19T05:37:34.899Z,86.10
2017-08-19T05:40:45.168Z,86.10
2017-08-19T05:43:55.733Z,86.00
2017-08-19T05:47:06.166Z,85.10
2017-08-19T05:50:16.050Z,86.00
2017-08-19T05:53:26.529Z,86.00
2017-08-19T05:56:37.217Z,84.50
2017-08-19T05:59:47.657Z,85.10
2017-08-19T06:02:58.175Z,85.10
2017-08-19T06:06:08.177Z,85.00
2017-08-19T06:09:17.849Z,86.00
2017-08-19T06:12:28.581Z,85.60
2017-08-19T06:15:38.971Z,85.30
2017-08-19T06:18:49.307Z,85.90
2017-08-19T06:21:59.890Z,83.60
2017-08-19T06:25:10.536Z,83.50
2017-08-19T06:28:21.450Z,83.90
2017-08-19T06:31:31.141Z,83.60
2017-08-19T06:34:41.015Z,84.10
2017-08-19T06:37:51.380Z,84.20
2017-08-19T06:41:01.600Z,83.70
2017-08-19T06:44:11.634Z,83.80
2017-08-19T06:47:21.796Z,84.10
2017-08-19T06:50:31.833Z,83.60
2017-08-19T06:53:41.759Z,83.70
2017-08-19T06:56:52.254Z,82.30
2017-08-19T07:00:03.233Z,84.90
2017-08-19T07:03:13.359Z,83.20
2017-08-19T07:06:23.988Z,81.70
2017-08-19T07:09:34.498Z,82.70
2017-08-19T07:12:44.489Z,83.00
2017-08-19T07:15:55.218Z,82.20
2017-08-19T07:19:06.038Z,79.10
2017-08-19T07:22:16.671Z,80.90
2017-08-19T07:25:26.548Z,80.90
2017-08-19T07:28:37.129Z,81.40
2017-08-19T07:31:47.979Z,81.80
2017-08-19T07:34:58.347Z,80.70
2017-08-19T07:38:09.090Z,79.30
2017-08-19T07:41:19.395Z,77.00
2017-08-19T07:44:29.633Z,79.30
2017-08-19T07:47:44.169Z,78.40
2017-08-19T07:50:55.430Z,76.60
2017-08-19T07:54:05.411Z,76.40
2017-08-19T07:57:15.628Z,77.10
2017-08-19T08:00:25.712Z,76.70
2017-08-19T08:03:35.738Z,77.10
2017-08-19T08:06:46.275Z,76.00
2017-08-19T08:13:16.555Z,74.30
2017-08-19T08:16:26.404Z,74.30
2017-08-19T08:19:36.501Z,72.20
2017-08-19T08:22:47.075Z,71.60
2017-08-19T08:25:58.085Z,70.80
2017-08-19T08:29:08.720Z,70.80
2017-08-19T08:32:18.881Z,69.90
2017-08-19T08:35:29.136Z,68.40
2017-08-19T08:38:39.285Z,68.30
2017-08-19T08:41:49.330Z,70.50
2017-08-19T08:44:59.502Z,71.30
2017-08-19T08:48:10.175Z,65.50
2017-08-19T08:51:20.156Z,65.00
2017-08-19T08:54:30.350Z,65.40
2017-08-19T08:57:40.507Z,66.50
2017-08-19T09:00:50.824Z,67.90
2017-08-19T09:04:01.103Z,67.90
2017-08-19T09:07:11.701Z,68.40
2017-08-19T09:10:21.832Z,68.40
2017-08-19T09:13:32.054Z,68.30
2017-08-19T09:16:42.394Z,68.60
2017-08-19T09:19:53.002Z,69.30
2017-08-19T09:23:03.619Z,69.20
2017-08-19T09:26:13.716Z,68.90
2017-08-19T09:29:23.759Z,69.70
2017-08-19T09:32:33.596Z,70.30
2017-08-19T09:35:43.689Z,68.90
2017-08-19T09:38:53.857Z,69.60
2017-08-19T09:42:04.228Z,68.90
2017-08-19T09:45:14.087Z,65.50
2017-08-19T09:48:26.200Z,66.40
2017-08-19T09:51:36.769Z,64.60
2017-08-19T09:54:47.077Z,66.30
2017-08-19T09:57:58.267Z,65.10
2017-08-19T10:01:09.242Z,65.00
2017-08-19T10:04:19.181Z,63.60
2017-08-19T10:07:29.147Z,65.90
2017-08-19T10:10:43.753Z,63.60
2017-08-19T10:13:54.135Z,63.90
2017-08-19T10:17:04.008Z,60.70
2017-08-19T10:20:14.271Z,61.00
2017-08-19T10:23:24.839Z,60.60
2017-08-19T10:26:35.842Z,57.90
2017-08-19T10:29:46.545Z,58.60
2017-08-19T10:32:57.553Z,60.40
2017-08-19T10:36:08.360Z,62.20
2017-08-19T10:39:19.715Z,62.20
2017-08-19T10:42:33.130Z,60.50
2017-08-19T10:45:52.190Z,60.00
2017-08-19T10:49:13.803Z,58.90
2017-08-19T10:52:27.314Z,60.80
2017-08-19T10:55:41.853Z,56.80
2017-08-19T10:58:53.336Z,57.80
2017-08-19T11:02:08.840Z,57.60
2017-08-19T11:05:24.723Z,58.60
2017-08-19T11:08:41.565Z,56.90
2017-08-19T11:11:55.308Z,57.00
2017-08-19T11:15:09.683Z,59.00
2017-08-19T11:18:23.889Z,55.90
2017-08-19T11:21:39.254Z,53.90
2017-08-19T11:24:56.068Z,54.00
2017-08-19T11:28:15.024Z,54.70
2017-08-19T11:31:33.375Z,53.30
2017-08-19T11:34:50.982Z,53.40
2017-08-19T11:38:07.195Z,52.70
2017-08-19T11:41:24.107Z,54.50
2017-08-19T11:44:41.514Z,50.60
2017-08-19T11:47:58.382Z,50.60
2017-08-19T11:51:17.427Z,52.60
2017-08-19T11:54:40.900Z,51.00
2017-08-19T11:57:54.007Z,51.40
2017-08-19T12:01:09.117Z,51.30
2017-08-19T12:04:25.246Z,46.90
2017-08-19T12:07:39.071Z,47.40
2017-08-19T12:10:50.286Z,48.80
2017-08-19T12:14:00.773Z,49.00
2017-08-19T12:17:13.680Z,49.20
2017-08-19T12:20:30.839Z,45.80
2017-08-19T12:23:48.939Z,48.00
2017-08-19T12:27:08.725Z,48.00
2017-08-19T12:30:29.605Z,46.60
2017-08-19T12:33:50.615Z,44.90
2017-08-19T12:37:07.353Z,49.60
2017-08-19T12:40:26.406Z,47.10
2017-08-19T12:43:40.470Z,49.30
2017-08-19T12:46:57.321Z,46.50
2017-08-19T12:50:13.404Z,47.10
2017-08-19T12:53:28.520Z,45.90
2017-08-19T12:56:48.378Z,45.40
2017-08-19T13:00:04.150Z,46.00
2017-08-19T13:03:18.136Z,47.00
2017-08-19T13:06:30.273Z,44.30
2017-08-19T13:09:41.739Z,44.20
2017-08-19T13:12:53.162Z,45.20
2017-08-19T13:16:14.851Z,44.20
2017-08-19T13:19:37.532Z,45.10
2017-08-19T13:22:54.769Z,46.20
2017-08-19T13:26:10.212Z,44.60
2017-08-19T13:29:28.721Z,43.50
2017-08-19T13:32:45.241Z,44.80
2017-08-19T13:36:05.413Z,43.70
2017-08-19T13:39:22.624Z,44.80
2017-08-19T13:42:41.213Z,45.30
2017-08-19T13:45:59.536Z,44.70
2017-08-19T13:49:15.136Z,45.10
2017-08-19T13:52:31.160Z,43.20
2017-08-19T13:55:42.924Z,43.20
2017-08-19T13:59:00.821Z,43.60
2017-08-19T14:02:18.093Z,45.20
2017-08-19T14:05:29.944Z,40.90
2017-08-19T14:08:47.178Z,40.90
2017-08-19T14:12:05.310Z,43.00
2017-08-19T14:15:29.300Z,41.90
2017-08-19T14:18:49.879Z,41.60
2017-08-19T14:22:03.586Z,40.10
2017-08-19T14:25:17.401Z,39.30
2017-08-19T14:28:33.005Z,39.70
2017-08-19T14:31:47.158Z,38.80
2017-08-19T14:35:03.104Z,39.00
2017-08-19T14:38:16.796Z,39.00
2017-08-19T14:41:29.167Z,39.10
2017-08-19T14:44:47.687Z,41.00
2017-08-19T14:47:59.902Z,40.50
2017-08-19T14:51:10.499Z,40.80
2017-08-19T14:54:23.523Z,39.50
2017-08-19T14:57:37.874Z,41.40
2017-08-19T15:00:52.552Z,39.50
2017-08-19T15:04:06.949Z,40.80
2017-08-19T15:07:20.453Z,41.20
2017-08-19T15:10:33.463Z,41.00
2017-08-19T15:14:00.881Z,40.40
2017-08-19T15:17:18.728Z,42.70
2017-08-19T15:20:43.955Z,41.60
2017-08-19T15:23:58.849Z,42.90
2017-08-19T15:27:13.950Z,41.20
2017-08-19T15:30:30.217Z,41.80
2017-08-19T15:33:42.118Z,42.00
2017-08-19T15:36:57.281Z,42.90
2017-08-19T15:40:14.672Z,42.30
2017-08-19T15:43:25.642Z,41.90
2017-08-19T15:46:37.049Z,42.30
2017-08-19T15:49:52.258Z,42.30
2017-08-19T15:53:09.566Z,43.40
2017-08-19T15:56:20.487Z,43.20
2017-08-19T15:59:33.878Z,43.10
2017-08-19T16:02:43.943Z,43.30
2017-08-19T16:05:54.500Z,41.00
2017-08-19T16:09:05.418Z,40.70
2017-08-19T16:12:16.484Z,41.80
2017-08-19T16:15:26.652Z,42.90
2017-08-19T16:18:37.934Z,43.30
2017-08-19T16:21:48.859Z,43.30
2017-08-19T16:25:00.426Z,44.50
2017-08-19T16:28:10.902Z,44.00
2017-08-19T16:31:21.206Z,42.70
2017-08-19T16:34:31.286Z,44.20
2017-08-19T16:37:41.907Z,42.60
2017-08-19T16:40:54.531Z,42.70
2017-08-19T16:44:05.118Z,43.10
2017-08-19T16:47:15.032Z,42.70
2017-08-19T16:50:24.823Z,43.50
2017-08-19T16:53:35.127Z,43.70
2017-08-19T16:56:45.531Z,43.70
2017-08-19T16:59:56.944Z,44.60
2017-08-19T17:03:07.408Z,44.00
2017-08-19T17:06:19.431Z,44.40
2017-08-19T17:09:29.621Z,43.20
2017-08-19T17:12:40.652Z,43.10
2017-08-19T17:15:53.198Z,44.20
2017-08-19T17:19:10.205Z,45.40
2017-08-19T17:22:30.399Z,45.40
2017-08-19T17:25:51.697Z,43.80
2017-08-19T17:29:06.924Z,44.20
2017-08-19T17:32:19.624Z,45.50
2017-08-19T17:35:30.660Z,45.30
2017-08-19T17:38:42.767Z,45.50
2017-08-19T17:41:54.166Z,46.90
2017-08-19T17:45:05.911Z,46.90
2017-08-19T17:48:17.502Z,46.60
2017-08-19T17:51:29.792Z,46.90
2017-08-19T17:54:42.490Z,47.60
2017-08-19T17:57:53.587Z,48.10
2017-08-19T18:01:15.760Z,49.70
2017-08-19T18:04:30.848Z,50.50
2017-08-19T18:07:53.195Z,50.70
2017-08-19T18:11:08.451Z,51.20
2017-08-19T18:14:28.643Z,52.90
2017-08-19T18:17:38.587Z,53.60
2017-08-19T18:20:48.594Z,54.20
2017-08-19T18:23:59.058Z,52.60
2017-08-19T18:27:09.444Z,52.10
2017-08-19T18:30:20.109Z,53.80
2017-08-19T18:33:30.240Z,53.80
2017-08-19T18:36:40.647Z,54.70
2017-08-19T18:39:50.966Z,55.20
2017-08-19T18:43:01.117Z,55.70
2017-08-19T18:46:11.659Z,56.00
2017-08-19T18:49:22.172Z,56.20
2017-08-19T18:52:32.003Z,56.60
2017-08-19T18:55:42.816Z,56.20
2017-08-19T18:58:53.133Z,56.00
2017-08-19T19:02:03.879Z,56.00
2017-08-19T19:05:14.279Z,55.90
2017-08-19T19:08:24.737Z,55.80
2017-08-19T19:11:34.555Z,56.20
2017-08-19T19:14:45.420Z,56.70
2017-08-19T19:17:55.727Z,56.80
2017-08-19T19:21:06.335Z,56.70
2017-08-19T19:24:17.149Z,57.20
2017-08-19T19:27:27.171Z,57.20
2017-08-19T19:30:37.976Z,57.70
2017-08-19T19:33:48.063Z,58.70
2017-08-19T19:36:58.626Z,58.60
2017-08-19T19:40:08.541Z,59.10
2017-08-19T19:43:19.086Z,60.50
2017-08-19T19:46:28.790Z,60.50
2017-08-19T19:49:38.699Z,59.40
2017-08-19T19:52:48.999Z,60.00
2017-08-19T19:55:59.696Z,58.90
2017-08-19T19:59:10.440Z,60.40
2017-08-19T20:02:20.965Z,60.20
2017-08-19T20:05:30.917Z,60.20
2017-08-19T20:08:41.674Z,59.70
2017-08-19T20:11:52.034Z,59.60
2017-08-19T20:15:02.333Z,59.50
2017-08-19T20:18:13.580Z,59.90
2017-08-19T20:21:23.271Z,59.90
2017-08-19T20:24:33.310Z,61.10
2017-08-19T20:27:43.315Z,60.40
2017-08-19T20:30:53.496Z,60.00
2017-08-19T20:34:04.163Z,60.40
2017-08-19T20:37:15.087Z,61.90
2017-08-19T20:40:25.623Z,61.20
2017-08-19T20:43:35.705Z,60.40
2017-08-19T20:46:46.169Z,61.00
2017-08-19T20:49:55.893Z,61.30
2017-08-19T20:53:05.660Z,61.50
2017-08-19T20:56:15.824Z,60.90
2017-08-19T20:59:26.455Z,62.00
2017-08-19T21:02:36.878Z,62.40
2017-08-19T21:05:46.732Z,62.30
2017-08-19T21:08:57.081Z,63.00
2017-08-19T21:12:07.619Z,62.50
2017-08-19T21:15:18.034Z,62.70
2017-08-19T21:18:30.949Z,63.30
2017-08-19T21:21:41.097Z,63.10
2017-08-19T21:24:52.262Z,64.90
2017-08-19T21:28:03.968Z,65.00
2017-08-19T21:31:13.876Z,65.20
2017-08-19T21:34:24.274Z,65.10
2017-08-19T21:37:34.936Z,65.80
2017-08-19T21:40:45.205Z,64.50
2017-08-19T21:43:55.095Z,64.50
2017-08-19T21:47:05.271Z,64.50
2017-08-19T21:50:16.171Z,64.40
2017-08-19T21:53:26.933Z,64.90
2017-08-19T21:56:36.736Z,65.50
2017-08-19T21:59:47.445Z,64.80
2017-08-19T22:02:58.233Z,64.50
2017-08-19T22:06:08.168Z,66.00
2017-08-19T22:09:18.870Z,66.00
2017-08-19T22:12:29.514Z,65.20
2017-08-19T22:15:39.920Z,66.20
2017-08-19T22:18:50.200Z,66.20
2017-08-19T22:22:00.782Z,67.20
2017-08-19T22:25:11.604Z,67.50
2017-08-19T22:28:22.048Z,66.90
2017-08-19T22:31:31.800Z,66.40
2017-08-19T22:34:42.097Z,66.80
2017-08-19T22:37:51.802Z,68.50
2017-08-19T22:41:02.072Z,67.10
2017-08-19T22:44:12.774Z,67.40
2017-08-19T22:47:23.053Z,68.30
2017-08-19T22:50:33.773Z,68.40
2017-08-19T22:53:43.982Z,68.30
2017-08-19T22:56:54.379Z,66.50
2017-08-19T23:00:05.809Z,65.40
2017-08-19T23:03:17.187Z,66.10
2017-08-19T23:06:26.961Z,66.10
2017-08-19T23:09:37.230Z,65.30
2017-08-19T23:12:47.579Z,65.20
2017-08-19T23:15:58.156Z,65.70
2017-08-19T23:19:08.308Z,65.30
2017-08-19T23:22:19.022Z,65.60
2017-08-19T23:25:29.646Z,65.50
2017-08-19T23:28:39.205Z,64.90
2017-08-19T23:31:50.016Z,66.80
2017-08-19T23:35:00.281Z,66.80
2017-08-19T23:38:10.689Z,65.10
2017-08-19T23:41:20.677Z,65.70
2017-08-19T23:44:30.482Z,65.90
2017-08-19T23:47:40.820Z,66.20
2017-08-19T23:50:51.462Z,66.10
2017-08-19T23:54:01.610Z,66.50
2017-08-19T23:57:11.796Z,67.30
